Time;durP1;ratioP1;P1;durP2;ratioP2;P2;SDS_P1;SDS_P2;PMS_P1;PMS_P2;Temp;Humidity;BMP_temperature;BMP_pressure;BME280_temperature;BME280_humidity;BME280_pressure;Samples;Min_cycle;Max_cycle;Signal;HPM_P1;HPM_P2
2022/11/05 00:10:27;;;;;;;14.18;8.15;;;;;;;6.32;100.00;101536.44;4976025;28;20051;-81
2022/11/05 00:18:22;;;;;;;14.70;7.43;;;;;;;5.88;100.00;101518.19;4976298;28;20038;-78
2022/11/05 00:20:47;;;;;;;16.15;7.97;;;;;;;5.79;100.00;101515.06;4975853;28;20035;-78
2022/11/05 00:25:59;;;;;;;12.40;7.70;;;;;;;5.50;100.00;101514.25;4975749;28;20174;-77
2022/11/05 00:28:26;;;;;;;15.75;7.93;;;;;;;5.54;100.00;101536.34;4975506;28;20051;-77
2022/11/05 00:30:52;;;;;;;13.52;8.32;;;;;;;5.54;100.00;101543.19;4975255;28;20031;-78
2022/11/05 00:33:20;;;;;;;16.00;7.50;;;;;;;5.36;100.00;101535.19;4975451;28;20122;-76
2022/11/05 00:35:46;;;;;;;13.52;7.95;;;;;;;5.38;100.00;101551.34;4975925;28;20031;-77
2022/11/05 00:38:11;;;;;;;13.18;8.23;;;;;;;5.25;100.00;101544.06;4975509;28;20073;-77
2022/11/05 00:40:37;;;;;;;12.93;8.18;;;;;;;5.05;100.00;101526.72;4975647;28;20066;-78
2022/11/05 00:45:46;;;;;;;18.90;9.15;;;;;;;5.06;100.00;101546.31;4975526;28;20517;-78
2022/11/05 00:50:55;;;;;;;16.80;9.98;;;;;;;5.00;100.00;101562.69;5036352;28;20535;-78
2022/11/05 00:53:20;;;;;;;16.83;9.18;;;;;;;4.90;100.00;101549.31;5036103;28;20030;-78
2022/11/05 00:55:46;;;;;;;13.43;9.02;;;;;;;4.80;100.00;101547.88;5018120;28;20021;-79
2022/11/05 00:58:14;;;;;;;15.20;9.85;;;;;;;4.67;100.00;101535.47;5036058;28;20103;-76
2022/11/05 01:00:43;;;;;;;13.80;9.35;;;;;;;4.73;100.00;101559.19;5036030;28;20061;-77
2022/11/05 01:03:11;;;;;;;15.52;9.60;;;;;;;4.66;100.00;101565.34;5035774;28;20044;-77
2022/11/05 01:05:43;;;;;;;17.20;10.20;;;;;;;4.59;100.00;101556.13;5035985;28;20048;-76
2022/11/05 01:08:10;;;;;;;17.45;9.90;;;;;;;4.51;100.00;101552.94;5035867;28;20033;-77
2022/11/05 01:10:40;;;;;;;23.88;11.10;;;;;;;4.51;100.00;101560.63;5035018;28;20029;-78
2022/11/05 01:13:06;;;;;;;18.35;10.60;;;;;;;4.44;100.00;101548.88;5035845;28;20104;-77
2022/11/05 01:15:31;;;;;;;17.48;11.35;;;;;;;4.64;100.00;101579.91;5035622;28;20453;-77
2022/11/05 01:17:56;;;;;;;20.38;11.18;;;;;;;4.65;100.00;101584.13;5017627;28;20038;-78
2022/11/05 01:20:22;;;;;;;19.10;12.45;;;;;;;4.69;100.00;101590.00;5017825;28;20021;-78
2022/11/05 01:22:47;;;;;;;19.63;13.25;;;;;;;4.68;100.00;101589.16;5035691;28;20032;-76
2022/11/05 01:25:13;;;;;;;19.15;12.90;;;;;;;4.52;100.00;101567.41;5035149;28;20128;-77
2022/11/05 01:27:38;;;;;;;20.08;12.93;;;;;;;4.67;100.00;101605.38;5035492;28;20420;-80
2022/11/05 01:30:06;;;;;;;21.40;12.93;;;;;;;4.59;100.00;101590.22;5017657;28;20351;-77
2022/11/05 01:32:33;;;;;;;20.27;13.00;;;;;;;4.56;100.00;101592.03;5034978;28;20478;-77
2022/11/05 01:34:58;;;;;;;22.52;13.27;;;;;;;4.65;100.00;101609.72;5035118;28;20397;-80
2022/11/05 01:37:23;;;;;;;19.98;12.57;;;;;;;4.61;100.00;101601.25;5035086;28;20030;-81
2022/11/05 01:39:49;;;;;;;25.10;13.70;;;;;;;4.59;100.00;101603.03;5035207;28;20053;-80
2022/11/05 01:42:20;;;;;;;19.98;13.25;;;;;;;4.60;100.00;101614.09;5035175;28;20492;-79
2022/11/05 01:44:54;;;;;;;19.67;12.82;;;;;;;4.57;100.00;101609.06;5017527;28;20022;-80
2022/11/05 01:47:28;;;;;;;22.48;13.40;;;;;;;4.56;100.00;101613.34;5035031;28;20377;-81
2022/11/05 01:49:56;;;;;;;22.50;13.07;;;;;;;4.58;100.00;101613.28;5035029;28;20405;-80
2022/11/05 01:52:25;;;;;;;19.60;12.65;;;;;;;4.47;100.00;101595.66;5034691;28;20076;-81
2022/11/05 01:54:50;;;;;;;21.23;12.55;;;;;;;4.55;100.00;101611.66;5034729;28;20021;-82
2022/11/05 01:57:16;;;;;;;21.85;13.18;;;;;;;4.50;100.00;101599.84;5035183;28;20491;-81
2022/11/05 01:59:51;;;;;;;22.45;12.80;;;;;;;4.47;100.00;101602.50;5034955;28;20044;-81
2022/11/05 02:02:17;;;;;;;21.70;12.90;;;;;;;4.42;100.00;101594.09;5035024;28;20548;-80
2022/11/05 02:04:49;;;;;;;23.77;12.85;;;;;;;4.27;100.00;101565.47;5034652;28;20116;-80
2022/11/05 02:07:16;;;;;;;19.17;12.30;;;;;;;4.30;100.00;101565.41;5034476;28;20025;-81
2022/11/05 02:10:07;;;;;;;20.27;12.98;;;;;;;4.42;100.00;101592.38;5034723;28;20144;-77
2022/11/05 02:12:35;;;;;;;23.05;13.20;;;;;;;4.37;100.00;101588.28;5034749;28;20392;-77
2022/11/05 02:15:00;;;;;;;20.08;12.32;;;;;;;4.36;100.00;101589.16;5034600;28;20083;-78
2022/11/05 02:17:50;;;;;;;22.23;12.52;;;;;;;4.32;100.00;101594.31;5034289;28;20057;-78
2022/11/05 02:20:22;;;;;;;19.77;11.27;;;;;;;4.24;100.00;101590.31;5034314;28;20029;-77
2022/11/05 02:23:12;;;;;;;21.63;11.88;;;;;;;4.28;100.00;101602.13;5033552;28;20389;-78
2022/11/05 02:26:08;;;;;;;19.40;11.30;;;;;;;4.23;100.00;101599.69;5034067;28;20421;-77
2022/11/05 02:29:06;;;;;;;19.20;11.30;;;;;;;4.17;100.00;101588.75;5034316;28;20037;-77
2022/11/05 02:31:39;;;;;;;18.90;10.60;;;;;;;4.20;100.00;101598.91;5034376;28;20037;-78
2022/11/05 02:34:11;;;;;;;16.42;10.70;;;;;;;4.05;100.00;101568.63;5033802;28;20043;-78
2022/11/05 02:36:55;;;;;;;18.75;10.60;;;;;;;4.13;100.00;101598.22;5034028;28;20028;-78
2022/11/05 02:39:55;;;;;;;16.50;10.90;;;;;;;4.07;100.00;101584.75;5034243;28;20211;-77
2022/11/05 02:42:44;;;;;;;19.35;11.23;;;;;;;3.99;100.00;101569.59;4953805;29;20125;-77
2022/11/05 02:45:24;;;;;;;24.60;11.20;;;;;;;3.97;100.00;101579.00;4953908;29;20024;-77
2022/11/05 02:47:59;;;;;;;15.40;9.70;;;;;;;4.02;100.00;101588.22;4953975;29;20527;-76
2022/11/05 02:50:47;;;;;;;18.00;11.18;;;;;;;4.00;100.00;101584.88;4953591;29;20074;-78
2022/11/05 02:53:29;;;;;;;21.65;11.80;;;;;;;3.87;100.00;101557.09;4953771;29;20446;-77
2022/11/05 02:56:17;;;;;;;20.85;11.45;;;;;;;4.06;100.00;101585.63;4953790;29;20031;-77
2022/11/05 02:58:42;;;;;;;19.05;11.63;;;;;;;4.08;100.00;101587.25;4953546;29;20062;-77
2022/11/05 03:01:10;;;;;;;20.88;12.25;;;;;;;3.98;100.00;101573.84;4953598;29;20036;-76
2022/11/05 03:03:41;;;;;;;21.02;12.02;;;;;;;3.76;100.00;101531.81;4936892;29;20487;-77
2022/11/05 03:06:07;;;;;;;20.15;11.80;;;;;;;4.06;100.00;101586.47;4953206;29;20381;-78
2022/11/05 03:09:29;;;;;;;20.05;11.40;;;;;;;4.05;100.00;101591.63;4953480;29;20038;-77
2022/11/05 03:11:54;;;;;;;;;;;;;;;4.01;100.00;101586.56;4877967;29;20041;-77
2022/11/05 03:14:48;;;;;;;21.73;12.00;;;;;;;3.96;100.00;101575.63;4877666;29;20043;-77
2022/11/05 03:17:28;;;;;;;20.33;13.07;;;;;;;4.02;100.00;101588.22;4877507;29;20134;-77
2022/11/05 03:20:14;;;;;;;22.88;13.23;;;;;;;3.99;100.00;101590.88;4926712;29;20047;-77
2022/11/05 03:22:44;;;;;;;23.27;12.55;;;;;;;3.85;100.00;101571.63;4934063;29;20044;-77
2022/11/05 03:25:18;;;;;;;21.85;12.20;;;;;;;3.95;100.00;101593.53;4933666;29;20048;-77
2022/11/05 03:27:48;;;;;;;18.20;12.07;;;;;;;3.81;100.00;101577.69;4933904;29;20064;-77
2022/11/05 03:30:17;;;;;;;22.55;15.02;;;;;;;3.85;100.00;101586.97;4933843;29;20083;-77
2022/11/05 03:32:48;;;;;;;21.35;12.95;;;;;;;3.78;100.00;101576.03;4933752;29;20046;-77
2022/11/05 03:35:17;;;;;;;;;;;;;;;3.89;100.00;101599.63;4934316;29;20035;-77
2022/11/05 03:37:46;;;;;;;22.50;14.40;;;;;;;3.85;100.00;101589.53;4934034;29;19915;-77
2022/11/05 03:40:13;;;;;;;22.63;13.55;;;;;;;3.80;100.00;101592.16;4933866;29;20175;-77
2022/11/05 03:42:44;;;;;;;24.10;14.35;;;;;;;3.47;100.00;101544.41;4983691;28;20044;-77
2022/11/05 03:45:33;;;;;;;21.33;13.90;;;;;;;3.72;100.00;101592.34;5032972;28;20144;-77
2022/11/05 03:48:01;;;;;;;24.77;14.90;;;;;;;3.71;100.00;101595.75;5033021;28;20405;-76
2022/11/05 03:50:37;;;;;;;22.42;14.45;;;;;;;3.71;100.00;101595.75;5032858;28;20108;-77
2022/11/05 03:53:10;;;;;;;27.23;14.95;;;;;;;3.72;100.00;101599.16;5033078;28;20033;-78
2022/11/05 03:55:45;;;;;;;24.52;15.50;;;;;;;3.76;100.00;101607.63;5032970;28;20509;-77
2022/11/05 03:58:12;;;;;;;30.88;16.60;;;;;;;3.77;100.00;101606.75;5032765;28;20111;-77
2022/11/05 04:00:37;;;;;;;29.58;17.13;;;;;;;3.76;100.00;101603.34;5032791;28;20104;-78
2022/11/05 04:03:02;;;;;;;28.40;16.50;;;;;;;3.64;100.00;101578.09;5033122;28;20095;-77
2022/11/05 04:05:28;;;;;;;28.52;17.45;;;;;;;3.75;100.00;101601.66;5032983;28;20469;-78
2022/11/05 04:13:23;;;;;;;32.95;19.92;;;;;;;3.69;100.00;101594.97;5032589;28;20080;-78
2022/11/05 04:18:35;;;;;;;33.95;17.83;;;;;;;3.59;100.00;101597.75;5033427;28;20040;-78
2022/11/05 04:26:29;;;;;;;33.95;19.63;;;;;;;3.69;100.00;101623.06;5032460;28;20501;-77
2022/11/05 04:31:38;;;;;;;37.35;23.42;;;;;;;3.38;100.00;101571.81;5032782;28;20476;-77
2022/11/05 04:34:04;;;;;;;37.10;22.10;;;;;;;3.73;100.00;101622.09;5032561;28;20061;-78
2022/11/05 04:36:29;;;;;;;37.22;21.85;;;;;;;3.64;100.00;101614.69;5032343;28;20061;-80
2022/11/05 04:38:55;;;;;;;40.92;23.48;;;;;;;3.29;100.00;101564.34;5032643;28;20441;-80
2022/11/05 04:41:20;;;;;;;40.40;23.13;;;;;;;3.55;100.00;101607.22;5032561;28;20041;-80
2022/11/05 04:43:45;;;;;;;37.47;22.80;;;;;;;3.68;100.00;101621.38;5032562;28;20083;-80
2022/11/05 04:46:11;;;;;;;41.78;24.27;;;;;;;3.54;100.00;101604.66;5035550;28;20057;-80
2022/11/05 04:48:37;;;;;;;40.50;24.08;;;;;;;3.63;100.00;101625.75;5035923;28;20416;-80
2022/11/05 04:51:03;;;;;;;39.05;23.02;;;;;;;3.44;100.00;101598.91;5035736;28;20028;-79
2022/11/05 04:53:29;;;;;;;41.78;24.42;;;;;;;3.61;100.00;101630.03;5036192;28;20442;-80
2022/11/05 04:56:07;;;;;;;43.42;24.15;;;;;;;3.54;100.00;101630.19;5035954;28;20029;-80
2022/11/05 04:58:33;;;;;;;39.17;23.95;;;;;;;3.58;100.00;101631.84;5035958;28;20045;-80
2022/11/05 05:00:58;;;;;;;37.60;23.17;;;;;;;3.56;100.00;101636.13;5036184;28;20022;-79
2022/11/05 05:03:23;;;;;;;42.35;23.40;;;;;;;3.55;100.00;101632.75;5035925;28;20045;-78
2022/11/05 05:05:49;;;;;;;38.92;24.80;;;;;;;3.55;100.00;101640.41;5035612;28;20451;-81
2022/11/05 05:08:14;;;;;;;39.58;25.38;;;;;;;3.55;100.00;101642.13;5035856;28;20029;-80
2022/11/05 05:10:39;;;;;;;37.47;25.45;;;;;;;3.48;100.00;101631.19;5035705;28;20041;-79
2022/11/05 05:13:04;;;;;;;45.85;26.70;;;;;;;3.29;100.00;101597.53;5035363;28;20038;-77
2022/11/05 05:15:30;;;;;;;45.70;27.08;;;;;;;3.58;100.00;101644.59;5035773;28;20034;-78
2022/11/05 05:17:55;;;;;;;44.63;28.08;;;;;;;3.58;100.00;101648.00;5035389;28;20129;-80
2022/11/05 05:23:04;;;;;;;46.88;27.55;;;;;;;3.57;100.00;101650.59;5035144;28;20036;-80
2022/11/05 05:25:30;;;;;;;41.35;25.88;;;;;;;3.54;100.00;101656.59;5035350;28;20049;-80
2022/11/05 05:27:56;;;;;;;47.55;26.75;;;;;;;3.51;100.00;101655.81;5035431;28;20044;-81
2022/11/05 05:30:22;;;;;;;43.60;26.40;;;;;;;3.44;100.00;101644.88;5035440;28;20018;-80
2022/11/05 05:32:47;;;;;;;40.95;26.50;;;;;;;3.34;100.00;101639.13;5035223;28;20033;-80
2022/11/05 05:35:12;;;;;;;45.95;26.67;;;;;;;3.43;100.00;101661.06;5035043;28;20032;-80
2022/11/05 05:37:38;;;;;;;48.53;27.88;;;;;;;3.37;100.00;101644.16;5035185;28;20025;-79
2022/11/05 05:40:03;;;;;;;45.28;26.45;;;;;;;3.40;100.00;101640.72;5035049;28;20025;-80
2022/11/05 05:42:29;;;;;;;46.03;27.55;;;;;;;3.41;100.00;101652.59;5035038;28;20397;-81
2022/11/05 05:44:54;;;;;;;51.10;27.88;;;;;;;3.46;100.00;101663.56;5035275;28;20021;-80
2022/11/05 05:47:19;;;;;;;52.30;28.73;;;;;;;3.45;100.00;101655.06;5035290;28;20040;-80
2022/11/05 05:49:45;;;;;;;44.20;27.65;;;;;;;3.47;100.00;101654.19;5035109;28;20030;-80
2022/11/05 05:52:10;;;;;;;49.30;28.05;;;;;;;3.56;100.00;101652.31;5034617;28;20057;-80
2022/11/05 05:54:35;;;;;;;53.17;30.50;;;;;;;3.62;100.00;101657.25;5035045;28;20022;-80
2022/11/05 05:57:02;;;;;;;51.13;29.58;;;;;;;3.65;100.00;101667.44;5034980;28;20033;-81
2022/11/05 05:59:27;;;;;;;52.13;27.77;;;;;;;3.55;100.00;101654.88;5035153;28;20017;-80
2022/11/05 06:01:52;;;;;;;47.88;27.30;;;;;;;3.60;100.00;101664.13;5034733;28;20032;-80
2022/11/05 06:04:18;;;;;;;46.92;27.92;;;;;;;3.49;100.00;101663.50;5034688;28;20034;-80
2022/11/05 06:06:45;;;;;;;47.13;27.25;;;;;;;3.56;100.00;101674.44;5034465;28;20026;-80
2022/11/05 06:09:11;;;;;;;48.03;26.88;;;;;;;3.52;100.00;101670.25;5034432;28;20033;-80
2022/11/05 06:11:36;;;;;;;46.42;28.23;;;;;;;3.39;100.00;101652.63;5034379;28;20128;-80
2022/11/05 06:14:02;;;;;;;48.08;28.00;;;;;;;3.49;100.00;101671.16;5034498;28;20037;-80
2022/11/05 06:16:27;;;;;;;46.17;27.80;;;;;;;3.28;100.00;101646.06;5034537;28;20025;-79
2022/11/05 06:18:52;;;;;;;45.78;26.23;;;;;;;3.42;100.00;101677.25;5034225;28;20028;-78
2022/11/05 06:21:18;;;;;;;44.75;25.98;;;;;;;3.38;100.00;101673.94;5034348;28;20025;-79
2022/11/05 06:23:44;;;;;;;45.70;27.10;;;;;;;3.36;100.00;101677.41;5034180;28;20554;-79
2022/11/05 06:26:15;;;;;;;42.90;26.45;;;;;;;3.34;100.00;101679.09;5034232;28;20049;-78
2022/11/05 06:28:41;;;;;;;43.47;26.50;;;;;;;3.35;100.00;101679.09;5034457;28;20029;-78
2022/11/05 06:31:11;;;;;;;49.65;26.63;;;;;;;3.18;100.00;101660.72;5034277;28;20488;-78
2022/11/05 06:33:37;;;;;;;47.78;27.23;;;;;;;3.29;100.00;101668.16;5034146;28;20496;-77
2022/11/05 06:36:04;;;;;;;44.67;27.63;;;;;;;3.30;100.00;101686.00;5033977;28;20022;-77
2022/11/05 06:38:34;;;;;;;50.40;27.50;;;;;;;3.00;100.00;101644.03;5033857;28;20462;-80
2022/11/05 06:41:01;;;;;;;48.15;26.65;;;;;;;3.12;100.00;101661.66;5034064;28;20033;-78
2022/11/05 06:43:27;;;;;;;46.22;26.55;;;;;;;3.24;100.00;101686.09;5034117;28;20082;-77
2022/11/05 06:45:53;;;;;;;48.08;28.75;;;;;;;3.31;100.00;101686.84;5033948;28;20025;-80
2022/11/05 06:48:19;;;;;;;49.67;27.80;;;;;;;3.18;100.00;101665.81;5033785;28;20381;-77
2022/11/05 06:50:44;;;;;;;47.03;27.90;;;;;;;3.22;100.00;101674.25;5033704;28;20033;-80
2022/11/05 06:53:10;;;;;;;48.65;28.10;;;;;;;3.16;100.00;101660.75;5033506;28;20074;-79
2022/11/05 06:55:36;;;;;;;49.95;28.00;;;;;;;3.34;100.00;101685.09;5015824;28;20033;-75
2022/11/05 06:58:03;;;;;;;50.20;29.05;;;;;;;3.35;100.00;101691.88;5033598;28;20045;-77
2022/11/05 07:00:28;;;;;;;46.60;27.98;;;;;;;3.35;100.00;101694.44;5033627;28;20022;-77
2022/11/05 07:02:57;;;;;;;49.72;28.95;;;;;;;3.35;100.00;101696.13;5033620;28;20108;-77
2022/11/05 07:05:22;;;;;;;47.35;28.17;;;;;;;3.34;100.00;101692.75;5015122;28;20041;-77
2022/11/05 07:07:48;;;;;;;49.08;28.27;;;;;;;3.40;100.00;101701.97;5032943;28;20029;-77
2022/11/05 07:10:16;;;;;;;51.53;28.38;;;;;;;3.36;100.00;101695.25;5033347;28;20029;-81
2022/11/05 07:12:41;;;;;;;51.45;30.20;;;;;;;3.29;100.00;101681.75;5033451;28;20079;-78
2022/11/05 07:15:08;;;;;;;45.42;29.40;;;;;;;3.46;100.00;101706.97;5033491;28;20033;-78
2022/11/05 07:17:33;;;;;;;48.67;28.00;;;;;;;3.37;100.00;101689.28;5033432;28;20025;-80
2022/11/05 07:19:58;;;;;;;48.10;29.10;;;;;;;3.49;100.00;101704.34;5033396;28;20427;-77
2022/11/05 07:22:23;;;;;;;52.70;30.33;;;;;;;3.49;100.00;101701.81;5033115;28;20132;-78
2022/11/05 07:24:49;;;;;;;48.63;28.80;;;;;;;3.62;100.00;101708.34;5033074;28;20091;-80
2022/11/05 07:27:15;;;;;;;52.80;30.45;;;;;;;3.67;100.00;101714.22;5032806;28;20054;-80
2022/11/05 07:29:41;;;;;;;50.95;29.50;;;;;;;3.69;100.00;101719.28;5032977;28;20075;-77
2022/11/05 07:32:06;;;;;;;46.50;29.80;;;;;;;3.71;100.00;101723.47;5032886;28;20029;-81
2022/11/05 07:34:32;;;;;;;50.20;31.58;;;;;;;3.62;100.00;101693.00;5033114;28;20041;-78
2022/11/05 07:36:57;;;;;;;51.17;30.85;;;;;;;3.73;100.00;101708.13;5032947;28;20018;-77
2022/11/05 07:39:23;;;;;;;47.75;31.50;;;;;;;3.84;100.00;101728.38;5032978;28;20044;-78
2022/11/05 07:41:50;;;;;;;50.70;29.45;;;;;;;3.88;100.00;101728.25;5033168;28;20030;-80
2022/11/05 07:44:16;;;;;;;46.85;28.60;;;;;;;3.88;100.00;101722.31;5032942;28;20031;-77
2022/11/05 07:46:41;;;;;;;42.92;26.67;;;;;;;3.98;100.00;101731.47;5032880;28;20026;-79
2022/11/05 07:49:07;;;;;;;49.55;26.90;;;;;;;3.84;100.00;101698.53;5032987;28;20021;-80
2022/11/05 07:51:32;;;;;;;42.72;26.48;;;;;;;4.07;100.00;101730.44;5014978;28;20052;-78
2022/11/05 07:53:57;;;;;;;46.90;28.17;;;;;;;4.03;100.00;101719.41;5032952;28;20084;-78
2022/11/05 07:56:23;;;;;;;49.63;28.08;;;;;;;4.05;100.00;101704.06;5032950;28;20440;-79
2022/11/05 07:58:48;;;;;;;50.92;27.38;;;;;;;4.24;100.00;101733.47;5032766;28;20108;-77
2022/11/05 08:01:13;;;;;;;45.42;26.63;;;;;;;4.28;100.00;101728.22;5028409;28;20018;-75
2022/11/05 08:03:39;;;;;;;51.35;28.20;;;;;;;4.29;100.00;101723.97;5013162;28;20106;-77
2022/11/05 08:06:04;;;;;;;46.83;27.25;;;;;;;4.12;100.00;101687.69;5013014;28;20026;-77
2022/11/05 08:08:30;;;;;;;43.03;26.48;;;;;;;4.39;100.00;101722.03;5012783;28;20030;-77
2022/11/05 08:11:02;;;;;;;46.45;27.20;;;;;;;4.40;100.00;101713.47;5012667;28;20077;-75
2022/11/05 08:13:27;;;;;;;44.15;26.13;;;;;;;4.56;100.00;101733.56;5013113;28;20061;-76
2022/11/05 08:15:55;;;;;;;50.53;26.52;;;;;;;4.63;100.00;101728.31;5013038;28;20053;-78
2022/11/05 08:18:20;;;;;;;46.25;26.80;;;;;;;4.65;100.00;101732.50;5012889;28;20040;-77
2022/11/05 08:20:46;;;;;;;41.13;24.90;;;;;;;4.59;100.00;101712.19;5015541;28;20030;-78
2022/11/05 08:23:11;;;;;;;42.85;24.75;;;;;;;4.71;100.00;101729.78;4998661;28;20138;-77
2022/11/05 08:25:36;;;;;;;42.65;25.95;;;;;;;4.65;100.00;101706.91;5016511;28;20073;-78
2022/11/05 08:28:07;;;;;;;40.08;26.08;;;;;;;4.71;100.00;101711.03;4998993;28;20037;-78
2022/11/05 08:30:33;;;;;;;41.20;25.13;;;;;;;4.81;100.00;101728.69;5016568;28;20113;-77
2022/11/05 08:33:02;;;;;;;48.42;27.10;;;;;;;4.90;100.00;101736.13;5016693;28;20053;-77
2022/11/05 08:35:28;;;;;;;47.85;27.02;;;;;;;4.88;100.00;101712.31;5016603;28;20087;-80
2022/11/05 08:37:57;;;;;;;49.88;28.45;;;;;;;5.04;100.00;101737.53;5016414;28;20432;-77
2022/11/05 08:40:23;;;;;;;50.05;29.25;;;;;;;4.94;100.00;101710.47;5016326;28;20381;-76
2022/11/05 08:42:49;;;;;;;48.05;28.58;;;;;;;5.14;100.00;101737.25;5016591;28;20112;-76
2022/11/05 08:45:14;;;;;;;46.75;26.50;;;;;;;5.19;100.00;101730.28;5016469;28;20026;-77
2022/11/05 08:47:39;;;;;;;48.72;26.30;;;;;;;5.25;100.00;101733.56;5016377;28;20084;-78
2022/11/05 08:50:05;;;;;;;47.05;26.90;;;;;;;5.30;100.00;101739.38;5016295;28;20036;-78
2022/11/05 08:52:31;;;;;;;45.70;26.27;;;;;;;5.30;100.00;101729.16;5016013;28;20030;-77
2022/11/05 08:54:56;;;;;;;46.05;27.23;;;;;;;5.35;100.00;101743.53;5029795;28;20024;-77
2022/11/05 08:57:21;;;;;;;52.08;29.23;;;;;;;5.13;100.00;101693.75;5035993;28;20014;-79
2022/11/05 08:59:47;;;;;;;41.08;26.55;;;;;;;5.40;100.00;101731.41;5036032;28;20488;-78
2022/11/05 09:02:12;;;;;;;47.28;26.80;;;;;;;5.54;100.00;101737.91;5035756;28;20028;-80
2022/11/05 09:04:37;;;;;;;45.03;25.27;;;;;;;5.16;100.00;101668.06;5029254;23;20065;-79
2022/11/05 09:07:03;;;;;;;42.30;25.17;;;;;;;5.67;100.00;101739.22;5015653;28;20474;-79
2022/11/05 09:09:28;;;;;;;43.47;25.15;;;;;;;5.71;100.00;101741.69;5015706;28;20022;-79
2022/11/05 09:11:53;;;;;;;45.25;26.60;;;;;;;5.79;100.00;101735.47;5015599;28;20034;-79
2022/11/05 09:14:19;;;;;;;44.88;25.20;;;;;;;5.81;100.00;101729.44;5015674;28;20123;-79
2022/11/05 09:16:44;;;;;;;43.58;24.83;;;;;;;5.86;100.00;101737.84;5015903;28;20030;-79
2022/11/05 09:19:09;;;;;;;40.30;23.55;;;;;;;5.92;100.00;101734.28;5015897;28;20390;-79
2022/11/05 09:21:37;;;;;;;46.92;24.83;;;;;;;5.99;100.00;101730.66;4997445;28;20038;-79
2022/11/05 09:24:03;;;;;;;42.88;22.88;;;;;;;5.95;100.00;101711.13;4997735;28;20512;-80
2022/11/05 09:26:28;;;;;;;43.45;23.08;;;;;;;6.15;100.00;101734.44;5015560;28;20108;-81
2022/11/05 09:28:54;;;;;;;39.47;22.88;;;;;;;6.21;100.00;101726.59;5015625;28;20030;-82
2022/11/05 09:31:19;;;;;;;39.53;20.35;;;;;;;6.25;100.00;101728.16;5015153;28;20026;-81
2022/11/05 09:33:45;;;;;;;37.45;20.77;;;;;;;6.27;100.00;101716.09;4997236;28;20446;-82
2022/11/05 09:36:10;;;;;;;35.22;20.42;;;;;;;6.47;100.00;101737.75;5015187;28;20107;-80
2022/11/05 09:38:35;;;;;;;33.35;20.08;;;;;;;6.52;100.00;101741.03;5015357;28;20022;-79
2022/11/05 09:41:04;;;;;;;38.95;21.15;;;;;;;6.55;100.00;101746.03;5015045;28;20431;-79
2022/11/05 09:43:35;;;;;;;36.83;19.70;;;;;;;6.59;100.00;101747.66;5015321;28;20104;-80
2022/11/05 09:46:29;;;;;;;33.88;19.50;;;;;;;6.54;100.00;101734.94;5015298;28;20032;-80
2022/11/05 09:49:03;;;;;;;42.20;19.38;;;;;;;6.71;100.00;101746.41;5012867;28;20042;-80
2022/11/05 09:51:30;;;;;;;30.33;18.17;;;;;;;6.81;100.00;101750.34;5014901;28;20089;-79
2022/11/05 09:53:58;;;;;;;36.28;19.08;;;;;;;6.64;100.00;101709.81;5015104;28;20029;-78
2022/11/05 09:56:27;;;;;;;31.88;18.70;;;;;;;7.01;100.00;101758.25;4997345;28;20099;-76
2022/11/05 09:59:00;;;;;;;29.15;17.48;;;;;;;7.10;100.00;101752.81;5014873;28;20033;-77
2022/11/05 10:01:36;;;;;;;30.55;17.30;;;;;;;7.14;100.00;101748.38;5014929;28;20028;-76
2022/11/05 10:04:08;;;;;;;30.13;17.10;;;;;;;7.30;100.00;101764.97;5014466;28;20056;-77
2022/11/05 10:06:37;;;;;;;30.73;15.65;;;;;;;7.40;100.00;101768.91;5014846;28;20021;-76
2022/11/05 10:09:21;;;;;;;29.42;16.33;;;;;;;7.50;100.00;101773.72;5014767;28;20017;-77
2022/11/05 10:11:53;;;;;;;26.80;14.70;;;;;;;7.50;100.00;101763.44;5014572;28;20030;-77
2022/11/05 10:14:30;;;;;;;26.23;14.93;;;;;;;7.67;100.00;101772.25;5014620;28;20030;-76
2022/11/05 10:17:17;;;;;;;28.42;15.02;;;;;;;7.76;100.00;101773.63;5014677;28;20030;-73
2022/11/05 10:19:48;;;;;;;22.40;14.73;;;;;;;7.60;100.00;101736.50;5014369;28;20116;-76
2022/11/05 10:22:15;;;;;;;28.13;14.80;;;;;;;7.97;100.00;101782.31;5014622;28;20021;-77
2022/11/05 10:24:47;;;;;;;28.77;15.68;;;;;;;8.10;100.00;101775.78;5014372;28;20034;-77
2022/11/05 10:27:17;;;;;;;27.13;14.27;;;;;;;8.31;100.00;101784.44;5013923;28;20030;-75
2022/11/05 10:29:43;;;;;;;24.70;15.25;;;;;;;8.46;100.00;101790.78;5014428;28;20076;-79
2022/11/05 10:32:16;;;;;;;25.38;13.55;;;;;;;8.46;100.00;101767.63;5014241;28;20022;-77
2022/11/05 10:34:42;;;;;;;22.73;13.20;;;;;;;8.71;100.00;101785.50;5014294;28;20061;-75
2022/11/05 10:37:09;;;;;;;26.33;13.05;;;;;;;8.72;100.00;101767.41;5014248;28;20025;-73
2022/11/05 10:39:35;;;;;;;24.50;13.18;;;;;;;8.70;98.83;101746.03;5014201;28;20113;-78
2022/11/05 10:42:38;;;;;;;24.15;12.25;;;;;;;9.05;99.02;101790.13;5013710;28;20109;-74
2022/11/05 10:45:30;;;;;;;21.75;12.45;;;;;;;9.16;99.45;101782.78;5013859;28;20481;-76
2022/11/05 10:48:24;;;;;;;20.95;12.48;;;;;;;9.20;98.53;101782.59;5014003;28;20469;-79
2022/11/05 10:50:50;;;;;;;25.67;13.23;;;;;;;9.11;97.66;101767.50;4934445;29;20036;-78
2022/11/05 10:53:19;;;;;;;23.73;11.80;;;;;;;9.26;97.34;101781.50;4934395;29;20046;-77
2022/11/05 10:55:48;;;;;;;27.42;12.18;;;;;;;9.28;97.88;101765.97;4934271;29;20039;-77
2022/11/05 10:58:16;;;;;;;26.75;13.80;;;;;;;9.42;96.43;101771.34;4934340;29;20439;-77
2022/11/05 11:01:00;;;;;;;24.92;13.13;;;;;;;9.40;96.37;101774.00;4918161;29;20036;-76
2022/11/05 11:03:37;;;;;;;22.08;11.77;;;;;;;9.43;95.71;101786.75;4934016;29;20399;-75
2022/11/05 11:06:20;;;;;;;24.02;12.63;;;;;;;9.38;96.14;101770.66;4934212;29;20507;-79
2022/11/05 11:08:47;;;;;;;20.63;12.30;;;;;;;9.47;94.53;101775.44;4934119;29;20051;-77
2022/11/05 11:11:35;;;;;;;20.42;10.93;;;;;;;9.48;94.98;101771.94;4934015;29;20122;-78
2022/11/05 11:14:17;;;;;;;21.20;12.13;;;;;;;9.40;94.62;101752.53;4933753;29;20098;-78
2022/11/05 11:16:44;;;;;;;21.65;11.98;;;;;;;9.60;94.75;101769.72;4934083;29;20090;-78
2022/11/05 11:19:28;;;;;;;26.73;12.05;;;;;;;9.52;94.56;101749.44;4933934;29;20027;-77
2022/11/05 11:22:02;;;;;;;21.48;10.48;;;;;;;10.06;100.00;101765.94;4933878;29;20566;-77
2022/11/05 11:24:28;;;;;;;20.60;11.07;;;;;;;10.44;100.00;101764.19;4934030;29;20031;-77
2022/11/05 11:26:59;;;;;;;22.55;12.43;;;;;;;10.67;100.00;101765.66;4946270;28;20125;-77
2022/11/05 11:29:27;;;;;;;21.38;11.60;;;;;;;10.84;95.95;101760.50;5013191;28;20029;-79
2022/11/05 11:31:54;;;;;;;26.35;12.38;;;;;;;10.92;95.20;101757.56;5013327;28;20057;-80
2022/11/05 11:34:29;;;;;;;22.13;11.07;;;;;;;11.00;97.72;101758.00;5013321;28;20037;-80
2022/11/05 11:37:05;;;;;;;20.65;11.02;;;;;;;11.16;98.63;101750.31;4995184;28;20034;-78
2022/11/05 11:39:32;;;;;;;20.77;11.98;;;;;;;11.37;93.90;101763.88;4995634;28;20109;-78
2022/11/05 11:42:01;;;;;;;42.30;13.70;;;;;;;11.40;90.93;101766.31;4994634;28;20180;-78
2022/11/05 11:44:35;;;;;;;26.42;12.65;;;;;;;11.52;92.60;101755.34;4995387;28;20025;-80
2022/11/05 11:47:03;;;;;;;19.65;11.05;;;;;;;11.66;91.86;101762.38;5013004;28;20490;-78
2022/11/05 11:49:48;;;;;;;24.35;11.32;;;;;;;11.81;93.17;101759.03;5013154;28;20022;-77
2022/11/05 11:52:33;;;;;;;20.67;10.55;;;;;;;11.99;89.56;101760.59;5013103;28;20035;-79
2022/11/05 11:55:10;;;;;;;31.02;12.65;;;;;;;12.03;88.64;101763.88;5018151;28;20026;-78
2022/11/05 11:57:46;;;;;;;21.65;11.73;;;;;;;12.05;87.19;101749.09;5019359;28;20063;-83
2022/11/05 12:00:13;;;;;;;20.95;11.00;;;;;;;12.10;87.26;101738.50;5019318;28;20028;-78
2022/11/05 12:02:38;;;;;;;19.15;9.70;;;;;;;12.28;85.32;101747.81;5121737;23;20052;-78
2022/11/05 12:05:21;;;;;;;21.83;11.15;;;;;;;12.12;81.98;101759.97;5021611;28;20033;-78